createdAt,value
2022-09-14T00:01:03.100Z,99802.75
2022-09-14T00:03:40.552Z,99801.00
2022-09-14T00:06:14.235Z,99799.60
2022-09-14T00:08:46.336Z,99799.76
2022-09-14T00:11:21.396Z,99802.33
2022-09-14T00:13:53.573Z,99798.41
2022-09-14T00:16:27.830Z,99799.05
2022-09-14T00:19:05.724Z,99801.21
2022-09-14T00:21:42.609Z,99799.73
2022-09-14T00:24:14.812Z,99797.77
2022-09-14T00:26:48.274Z,99798.47
2022-09-14T00:29:20.641Z,99795.20
2022-09-14T00:31:54.716Z,99791.07
2022-09-14T00:34:26.971Z,99790.99
2022-09-14T00:37:02.475Z,99787.62
2022-09-14T00:39:34.205Z,99791.22
2022-09-14T00:42:09.465Z,99790.89
2022-09-14T00:45:08.356Z,99792.42
2022-09-14T00:47:40.338Z,99787.41
2022-09-14T00:50:12.861Z,99790.13
2022-09-14T00:52:54.698Z,99791.42
2022-09-14T00:55:26.857Z,99790.85
2022-09-14T00:57:58.709Z,99792.04
2022-09-14T01:00:32.323Z,99793.22
2022-09-14T01:03:05.844Z,99792.21
2022-09-14T01:05:57.353Z,99793.89
2022-09-14T01:08:51.211Z,99791.31
2022-09-14T01:11:36.866Z,99791.79
2022-09-14T01:14:18.781Z,99787.79
2022-09-14T01:17:00.752Z,99791.75
2022-09-14T01:19:44.335Z,99788.10
2022-09-14T01:22:27.191Z,99785.30
2022-09-14T01:25:10.524Z,99782.80
2022-09-14T01:27:44.188Z,99778.48
2022-09-14T01:30:26.212Z,99778.95
2022-09-14T01:33:05.877Z,99782.14
2022-09-14T01:35:43.800Z,99781.33
2022-09-14T01:38:20.298Z,99781.00
2022-09-14T01:40:57.192Z,99781.36
2022-09-14T01:43:36.573Z,99775.31
2022-09-14T01:46:12.588Z,99774.73
2022-09-14T01:48:49.772Z,99772.85
2022-09-14T01:51:30.628Z,99772.30
2022-09-14T01:54:08.676Z,99772.09
2022-09-14T01:56:45.843Z,99774.36
2022-09-14T01:59:21.691Z,99772.33
2022-09-14T02:02:01.559Z,99777.23
2022-09-14T02:04:40.050Z,99776.85
2022-09-14T02:07:12.425Z,99774.42
2022-09-14T02:09:44.855Z,99770.77
2022-09-14T02:12:19.126Z,99770.23
2022-09-14T02:14:53.717Z,99763.60
2022-09-14T02:17:26.077Z,99760.46
2022-09-14T02:20:00.067Z,99754.52
2022-09-14T02:22:34.737Z,99752.15
2022-09-14T02:25:08.735Z,99751.29
2022-09-14T02:27:40.543Z,99750.95
2022-09-14T02:30:14.777Z,99746.34
2022-09-14T02:32:58.085Z,99744.18
2022-09-14T02:35:37.308Z,99744.81
2022-09-14T02:38:16.768Z,99744.08
2022-09-14T02:40:56.365Z,99744.54
2022-09-14T02:43:39.647Z,99747.39
2022-09-14T02:46:18.459Z,99739.80
2022-09-14T02:48:58.084Z,99741.41
2022-09-14T02:51:35.431Z,99744.45
2022-09-14T02:54:13.985Z,99744.20
2022-09-14T02:56:46.197Z,99743.65
2022-09-14T02:59:19.491Z,99742.05
2022-09-14T03:01:51.329Z,99744.97
2022-09-14T03:04:24.793Z,99743.98
2022-09-14T03:06:56.870Z,99738.41
2022-09-14T03:09:28.654Z,99737.35
2022-09-14T03:12:00.500Z,99737.89
2022-09-14T03:14:33.152Z,99739.82
2022-09-14T03:17:04.894Z,99736.16
2022-09-14T03:19:36.692Z,99738.34
2022-09-14T03:22:08.470Z,99737.42
2022-09-14T03:24:42.591Z,99735.79
2022-09-14T03:27:14.271Z,99739.21
2022-09-14T03:29:47.735Z,99740.15
2022-09-14T03:32:19.494Z,99740.21
2022-09-14T03:34:53.215Z,99736.32
2022-09-14T03:37:25.005Z,99736.08
2022-09-14T03:39:56.779Z,99733.48
2022-09-14T03:42:28.615Z,99728.38
2022-09-14T03:45:01.236Z,99729.77
2022-09-14T03:47:32.947Z,99728.55
2022-09-14T03:50:11.824Z,99725.40
2022-09-14T03:52:43.649Z,99727.23
2022-09-14T03:55:15.512Z,99724.18
2022-09-14T03:57:47.272Z,99725.89
2022-09-14T04:00:27.785Z,99725.30
2022-09-14T04:03:00.899Z,99727.96
2022-09-14T04:05:32.791Z,99731.27
2022-09-14T04:08:04.835Z,99733.04
2022-09-14T04:10:39.133Z,99731.85
2022-09-14T04:13:10.775Z,99729.21
2022-09-14T04:15:42.563Z,99729.92
2022-09-14T04:18:14.341Z,99731.14
2022-09-14T04:20:48.658Z,99736.45
2022-09-14T04:23:20.333Z,99738.04
2022-09-14T04:25:52.668Z,99742.67
2022-09-14T04:28:25.611Z,99744.75
2022-09-14T04:31:05.092Z,99741.73
2022-09-14T04:33:38.686Z,99746.66
2022-09-14T04:36:13.584Z,99744.16
2022-09-14T04:38:46.907Z,99744.77
2022-09-14T04:41:22.182Z,99744.29
2022-09-14T04:43:55.783Z,99744.16
2022-09-14T04:46:29.909Z,99741.77
2022-09-14T04:49:04.941Z,99744.77
2022-09-14T04:51:39.388Z,99743.56
2022-09-14T04:54:14.409Z,99744.68
2022-09-14T04:56:53.191Z,99747.71
2022-09-14T04:59:24.834Z,99753.27
2022-09-14T05:01:57.481Z,99752.31
2022-09-14T05:04:29.479Z,99751.14
2022-09-14T05:07:07.612Z,99748.94
2022-09-14T05:09:40.573Z,99742.06
2022-09-14T05:12:12.546Z,99742.05
2022-09-14T05:14:44.286Z,99735.58
2022-09-14T05:17:16.077Z,99737.89
2022-09-14T05:19:47.909Z,99733.76
2022-09-14T05:22:22.698Z,99738.95
2022-09-14T05:24:54.577Z,99734.40
2022-09-14T05:27:26.402Z,99731.99
2022-09-14T05:29:58.122Z,99732.55
2022-09-14T05:32:29.812Z,99729.34
2022-09-14T05:35:01.548Z,99734.72
2022-09-14T05:37:35.009Z,99726.52
2022-09-14T05:40:09.721Z,99729.70
2022-09-14T05:42:42.326Z,99728.41
2022-09-14T05:45:15.281Z,99738.08
2022-09-14T05:47:48.204Z,99739.23
2022-09-14T05:53:19.897Z,99742.66
2022-09-14T05:55:59.828Z,99749.10
2022-09-14T05:58:32.294Z,99737.05
2022-09-14T06:01:09.368Z,99729.60
2022-09-14T06:03:41.281Z,99731.05
2022-09-14T06:06:15.068Z,99732.52
2022-09-14T06:08:50.221Z,99725.73
2022-09-14T06:11:24.788Z,99733.17
2022-09-14T06:13:58.305Z,99731.00
2022-09-14T06:16:30.760Z,99728.70
2022-09-14T06:19:03.325Z,99729.75
2022-09-14T06:21:36.477Z,99725.46
2022-09-14T06:24:08.299Z,99724.14
2022-09-14T06:26:40.063Z,99722.42
2022-09-14T06:29:11.824Z,99726.88
2022-09-14T06:31:43.499Z,99728.60
2022-09-14T06:34:15.312Z,99728.59
2022-09-14T06:36:46.975Z,99727.27
2022-09-14T06:39:18.802Z,99729.98
2022-09-14T06:41:51.978Z,99732.79
2022-09-14T06:44:23.877Z,99737.16
2022-09-14T06:46:55.546Z,99744.66
2022-09-14T06:49:28.171Z,99742.17
2022-09-14T06:52:00.911Z,99742.79
2022-09-14T06:54:33.985Z,99738.54
2022-09-14T06:57:07.045Z,99739.87
2022-09-14T06:59:38.765Z,99741.04
2022-09-14T07:02:15.138Z,99746.04
2022-09-14T07:04:46.947Z,99754.89
2022-09-14T07:07:19.378Z,99759.73
2022-09-14T07:09:54.494Z,99755.44
2022-09-14T07:12:26.214Z,99750.41
2022-09-14T07:14:59.604Z,99753.45
2022-09-14T07:17:31.407Z,99754.30
2022-09-14T07:20:03.551Z,99747.65
2022-09-14T07:22:36.946Z,99746.75
2022-09-14T07:25:12.883Z,99749.09
2022-09-14T07:27:44.671Z,99747.29
2022-09-14T07:30:21.245Z,99744.65
2022-09-14T07:32:52.988Z,99746.08
2022-09-14T07:35:24.758Z,99751.27
2022-09-14T07:37:56.557Z,99746.18
2022-09-14T07:40:30.057Z,99742.98
2022-09-14T07:43:02.089Z,99743.83
2022-09-14T07:45:35.951Z,99743.03
2022-09-14T07:48:08.179Z,99746.93
2022-09-14T07:50:43.997Z,99745.05
2022-09-14T07:53:15.852Z,99745.89
2022-09-14T07:55:48.115Z,99744.36
2022-09-14T07:58:19.838Z,99751.90
2022-09-14T08:00:52.425Z,99748.52
2022-09-14T08:03:25.376Z,99754.46
2022-09-14T08:06:03.174Z,99750.77
2022-09-14T08:08:37.102Z,99744.21
2022-09-14T08:11:12.909Z,99740.95
2022-09-14T08:13:46.842Z,99737.55
2022-09-14T08:16:19.616Z,99738.06
2022-09-14T08:18:56.909Z,99732.92
2022-09-14T08:21:30.961Z,99725.70
2022-09-14T08:24:04.368Z,99728.46
2022-09-14T08:26:37.591Z,99726.55
2022-09-14T08:29:09.652Z,99729.98
2022-09-14T08:31:43.363Z,99727.44
2022-09-14T08:34:48.191Z,99720.71
2022-09-14T08:37:20.519Z,99726.65
2022-09-14T08:39:53.418Z,99725.38
2022-09-14T08:42:26.193Z,99724.42
2022-09-14T08:45:01.986Z,99722.96
2022-09-14T08:47:39.038Z,99720.64
2022-09-14T08:50:18.534Z,99723.31
2022-09-14T08:52:53.086Z,99719.65
2022-09-14T08:55:36.591Z,99714.62
2022-09-14T08:58:20.749Z,99719.45
2022-09-14T09:00:56.409Z,99719.70
2022-09-14T09:03:49.927Z,99723.20
2022-09-14T09:06:30.408Z,99725.13
2022-09-14T09:09:10.171Z,99718.44
2022-09-14T09:11:46.477Z,99722.04
2022-09-14T09:14:23.721Z,99721.77
2022-09-14T09:16:58.235Z,99724.58
2022-09-14T09:19:35.572Z,99723.20
2022-09-14T09:22:13.599Z,99714.60
2022-09-14T09:24:50.105Z,99714.40
2022-09-14T09:27:22.082Z,99714.02
2022-09-14T09:29:55.568Z,99713.69
2022-09-14T09:32:28.709Z,99712.56
2022-09-14T09:35:28.109Z,99709.46
2022-09-14T09:37:59.969Z,99711.39
2022-09-14T09:40:41.450Z,99705.73
2022-09-14T09:43:21.319Z,99705.06
2022-09-14T09:46:09.533Z,99705.29
2022-09-14T09:48:48.487Z,99713.65
2022-09-14T09:51:30.048Z,99712.59
2022-09-14T09:54:08.690Z,99713.88
2022-09-14T09:56:52.148Z,99711.42
2022-09-14T09:59:36.424Z,99702.88
2022-09-14T10:02:31.225Z,99698.56
2022-09-14T10:05:07.172Z,99700.91
2022-09-14T10:07:42.073Z,99695.98
2022-09-14T10:10:16.140Z,99693.52
2022-09-14T10:12:53.575Z,99689.23
2022-09-14T10:15:26.988Z,99687.33
2022-09-14T10:18:09.043Z,99687.29
2022-09-14T10:20:44.266Z,99684.10
2022-09-14T10:23:26.211Z,99682.61
2022-09-14T10:26:20.328Z,99679.81
2022-09-14T10:28:53.510Z,99683.83
2022-09-14T10:31:32.334Z,99681.86
2022-09-14T10:34:17.207Z,99683.31
2022-09-14T10:36:56.713Z,99687.17
2022-09-14T10:39:36.919Z,99684.44
2022-09-14T10:42:17.794Z,99680.83
2022-09-14T10:45:01.260Z,99679.19
2022-09-14T10:48:00.444Z,99679.56
2022-09-14T10:50:42.962Z,99681.39
2022-09-14T10:53:31.419Z,99684.40
2022-09-14T10:56:07.556Z,99682.55
2022-09-14T10:58:58.818Z,99677.10
2022-09-14T11:01:44.414Z,99675.05
2022-09-14T11:04:27.938Z,99671.80
2022-09-14T11:07:08.084Z,99670.27
2022-09-14T11:09:49.795Z,99680.91
2022-09-14T11:12:30.346Z,99679.77
2022-09-14T11:15:09.677Z,99685.08
2022-09-14T11:18:08.487Z,99677.34
2022-09-14T11:21:05.052Z,99675.84
2022-09-14T11:23:49.226Z,99664.39
2022-09-14T11:26:31.486Z,99661.06
2022-09-14T11:29:12.509Z,99653.06
2022-09-14T11:32:10.161Z,99655.27
2022-09-14T11:34:54.773Z,99654.77
2022-09-14T11:37:37.473Z,99654.19
2022-09-14T11:40:24.378Z,99649.98
2022-09-14T11:43:06.015Z,99647.63
2022-09-14T11:45:43.296Z,99653.23
2022-09-14T11:48:41.877Z,99650.64
2022-09-14T11:51:18.434Z,99655.13
2022-09-14T11:53:50.950Z,99649.27
2022-09-14T11:56:27.569Z,99651.38
2022-09-14T11:59:03.484Z,99657.58
2022-09-14T12:01:37.807Z,99656.75
2022-09-14T12:04:19.423Z,99650.64
2022-09-14T12:06:59.370Z,99653.83
2022-09-14T12:09:54.956Z,99660.67
2022-09-14T12:12:41.577Z,99663.73
2022-09-14T12:15:20.228Z,99666.98
2022-09-14T12:17:53.423Z,99657.39
2022-09-14T12:20:41.485Z,99654.79
2022-09-14T12:23:26.502Z,99655.00
2022-09-14T12:26:02.156Z,99654.38
2022-09-14T12:28:48.171Z,99648.89
2022-09-14T12:31:58.075Z,99647.73
2022-09-14T12:34:33.830Z,99645.88
2022-09-14T12:37:37.104Z,99651.98
2022-09-14T12:40:35.957Z,99650.90
2022-09-14T12:43:47.325Z,99653.21
2022-09-14T12:46:38.679Z,99656.50
2022-09-14T12:49:39.273Z,99647.98
2022-09-14T12:52:30.068Z,99640.88
2022-09-14T12:55:21.337Z,99639.76
2022-09-14T12:58:01.582Z,99638.73
2022-09-14T13:00:48.099Z,99638.61
2022-09-14T13:03:43.333Z,99641.70
2022-09-14T13:06:15.903Z,99638.13
2022-09-14T13:08:50.430Z,99639.36
2022-09-14T13:11:29.882Z,99637.16
2022-09-14T13:14:03.213Z,99632.84
2022-09-14T13:16:42.616Z,99635.15
2022-09-14T13:19:27.432Z,99625.32
2022-09-14T13:22:00.690Z,99623.92
2022-09-14T13:24:38.861Z,99628.74
2022-09-14T13:27:22.709Z,99624.51
2022-09-14T13:30:08.587Z,99626.30
2022-09-14T13:32:44.860Z,99622.23
2022-09-14T13:35:25.879Z,99616.85
2022-09-14T13:37:56.331Z,99614.19
2022-09-14T13:40:31.318Z,99614.33
2022-09-14T13:43:03.679Z,99610.13
2022-09-14T13:45:37.119Z,99609.16
2022-09-14T13:48:09.315Z,99599.39
2022-09-14T13:50:42.018Z,99597.29
2022-09-14T13:53:42.090Z,99592.48
2022-09-14T13:56:23.246Z,99591.92
2022-09-14T13:59:18.954Z,99588.70
2022-09-14T14:01:57.193Z,99584.19
2022-09-14T14:04:36.082Z,99585.14
2022-09-14T14:07:19.110Z,99581.83
2022-09-14T14:09:54.785Z,99581.55
2022-09-14T14:12:30.138Z,99574.88
2022-09-14T14:15:03.677Z,99572.34
2022-09-14T14:17:38.671Z,99568.59
2022-09-14T14:20:35.346Z,99570.88
2022-09-14T14:23:26.316Z,99568.16
2022-09-14T14:26:07.577Z,99560.34
2022-09-14T14:28:40.744Z,99559.29
2022-09-14T14:31:18.496Z,99557.42
2022-09-14T14:33:53.413Z,99559.27
2022-09-14T14:36:25.148Z,99559.11
2022-09-14T14:38:58.596Z,99560.70
2022-09-14T14:41:30.318Z,99555.23
2022-09-14T14:44:02.305Z,99556.23
2022-09-14T14:46:34.295Z,99554.48
2022-09-14T14:49:06.078Z,99549.29
2022-09-14T14:51:39.654Z,99546.39
2022-09-14T14:54:11.789Z,99544.39
2022-09-14T14:56:44.149Z,99545.53
2022-09-14T14:59:31.118Z,99546.29
2022-09-14T15:02:03.132Z,99547.60
2022-09-14T15:04:35.206Z,99544.59
2022-09-14T15:07:06.995Z,99544.81
2022-09-14T15:09:38.739Z,99544.51
2022-09-14T15:12:10.939Z,99543.52
2022-09-14T15:14:42.918Z,99540.97
2022-09-14T15:17:15.489Z,99534.08
2022-09-14T15:19:47.261Z,99534.64
2022-09-14T15:22:19.112Z,99534.28
2022-09-14T15:24:50.847Z,99531.16
2022-09-14T15:27:22.630Z,99527.92
2022-09-14T15:29:57.658Z,99530.05
2022-09-14T15:32:29.391Z,99531.54
2022-09-14T15:35:01.408Z,99534.55
2022-09-14T15:37:39.876Z,99541.65
2022-09-14T15:40:15.471Z,99539.08
2022-09-14T15:42:47.207Z,99536.16
2022-09-14T15:45:19.645Z,99538.08
2022-09-14T15:47:51.390Z,99544.95
2022-09-14T15:50:25.553Z,99540.41
2022-09-14T15:53:02.418Z,99534.44
2022-09-14T15:55:34.535Z,99527.70
2022-09-14T15:58:06.418Z,99530.97
2022-09-14T16:00:43.461Z,99534.28
2022-09-14T16:03:15.337Z,99526.31
2022-09-14T16:05:47.147Z,99522.81
2022-09-14T16:08:19.199Z,99526.84
2022-09-14T16:10:59.262Z,99525.98
2022-09-14T16:13:31.357Z,99529.63
2022-09-14T16:16:08.393Z,99519.91
2022-09-14T16:18:41.093Z,99522.90
2022-09-14T16:21:17.088Z,99521.02
2022-09-14T16:23:51.224Z,99525.08
2022-09-14T16:26:25.131Z,99517.38
2022-09-14T16:28:57.381Z,99515.83
2022-09-14T16:31:31.827Z,99516.98
2022-09-14T16:34:06.167Z,99515.95
2022-09-14T16:36:39.935Z,99515.67
2022-09-14T16:39:14.258Z,99522.04
2022-09-14T16:41:47.347Z,99525.55
2022-09-14T16:44:25.781Z,99523.39
2022-09-14T16:46:59.239Z,99522.21
2022-09-14T16:49:31.191Z,99522.75
2022-09-14T16:52:04.254Z,99531.27
2022-09-14T16:54:36.220Z,99531.16
2022-09-14T16:57:08.332Z,99525.03
2022-09-14T16:59:40.459Z,99520.70
2022-09-14T17:02:14.865Z,99525.33
2022-09-14T17:04:46.974Z,99525.73
2022-09-14T17:07:19.288Z,99527.73
2022-09-14T17:09:52.121Z,99528.55
2022-09-14T17:12:24.719Z,99534.69
2022-09-14T17:14:56.970Z,99535.17
2022-09-14T17:17:29.480Z,99533.44
2022-09-14T17:20:01.763Z,99532.43
2022-09-14T17:22:39.596Z,99528.29
2022-09-14T17:25:16.810Z,99522.66
2022-09-14T17:27:49.553Z,99520.98
2022-09-14T17:30:23.855Z,99519.77
2022-09-14T17:32:58.734Z,99519.72
2022-09-14T17:35:30.958Z,99527.10
2022-09-14T17:38:03.119Z,99519.00
2022-09-14T17:40:35.314Z,99518.70
2022-09-14T17:43:08.213Z,99518.62
2022-09-14T17:45:40.602Z,99518.00
2022-09-14T17:48:12.798Z,99521.15
2022-09-14T17:50:44.956Z,99525.17
2022-09-14T17:53:17.723Z,99520.02
2022-09-14T17:55:50.145Z,99514.93
2022-09-14T17:58:22.479Z,99510.41
2022-09-14T18:01:06.492Z,99513.34
2022-09-14T18:03:39.694Z,99512.25
2022-09-14T18:06:13.886Z,99507.94
2022-09-14T18:08:46.731Z,99505.61
2022-09-14T18:11:19.900Z,99502.96
2022-09-14T18:13:53.904Z,99501.80
2022-09-14T18:16:27.517Z,99498.06
2022-09-14T18:19:01.007Z,99500.39
2022-09-14T18:21:33.346Z,99497.45
2022-09-14T18:24:06.541Z,99497.84
2022-09-14T18:26:39.358Z,99498.55
2022-09-14T18:29:14.873Z,99495.50
2022-09-14T18:31:47.387Z,99496.98
2022-09-14T18:34:21.463Z,99492.28
2022-09-14T18:36:54.889Z,99494.48
2022-09-14T18:39:27.081Z,99494.55
2022-09-14T18:41:59.199Z,99495.53
2022-09-14T18:44:31.159Z,99493.52
2022-09-14T18:47:04.041Z,99486.08
2022-09-14T18:49:35.923Z,99484.44
2022-09-14T18:52:07.854Z,99484.67
2022-09-14T18:54:39.687Z,99482.17
2022-09-14T18:57:11.652Z,99477.81
2022-09-14T18:59:43.645Z,99472.33
2022-09-14T19:02:15.874Z,99471.48
2022-09-14T19:04:49.111Z,99468.73
2022-09-14T19:07:20.991Z,99467.73
2022-09-14T19:09:53.074Z,99460.48
2022-09-14T19:12:25.329Z,99462.14
2022-09-14T19:14:57.693Z,99460.80
2022-09-14T19:17:29.735Z,99466.99
2022-09-14T19:20:02.063Z,99465.77
2022-09-14T19:22:34.162Z,99468.20
2022-09-14T19:25:07.605Z,99467.17
2022-09-14T19:27:39.492Z,99468.12
2022-09-14T19:30:18.955Z,99467.51
2022-09-14T19:32:50.912Z,99465.55
2022-09-14T19:35:23.563Z,99466.60
2022-09-14T19:37:55.780Z,99464.17
2022-09-14T19:40:28.694Z,99465.73
2022-09-14T19:43:00.598Z,99469.05
2022-09-14T19:45:32.884Z,99464.76
2022-09-14T19:48:05.214Z,99463.58
2022-09-14T19:50:38.698Z,99463.50
2022-09-14T19:53:10.478Z,99463.91
2022-09-14T19:55:42.283Z,99466.19
2022-09-14T19:58:14.017Z,99462.06
2022-09-14T20:00:47.421Z,99466.13
2022-09-14T20:03:19.527Z,99463.40
2022-09-14T20:05:59.580Z,99457.15
2022-09-14T20:08:32.304Z,99453.95
2022-09-14T20:11:09.078Z,99451.75
2022-09-14T20:13:41.551Z,99452.55
2022-09-14T20:16:15.798Z,99452.15
2022-09-14T20:18:48.839Z,99452.92
2022-09-14T20:21:23.896Z,99446.85
2022-09-14T20:24:19.296Z,99456.33
2022-09-14T20:26:53.236Z,99453.42
2022-09-14T20:29:26.180Z,99453.66
2022-09-14T20:31:58.186Z,99456.71
2022-09-14T20:34:30.321Z,99461.17
2022-09-14T20:37:02.138Z,99458.23
2022-09-14T20:39:36.057Z,99459.33
2022-09-14T20:42:10.055Z,99460.98
2022-09-14T20:44:41.969Z,99464.21
2022-09-14T20:47:13.804Z,99460.09
2022-09-14T20:49:45.647Z,99458.62
2022-09-14T20:52:19.225Z,99453.31
2022-09-14T20:54:50.983Z,99448.08
2022-09-14T20:57:24.293Z,99449.11
2022-09-14T20:59:57.741Z,99447.61
2022-09-14T21:02:30.725Z,99447.77
2022-09-14T21:05:02.544Z,99446.36
2022-09-14T21:07:34.468Z,99442.61
2022-09-14T21:10:10.385Z,99442.23
2022-09-14T21:12:43.259Z,99442.30
2022-09-14T21:15:15.860Z,99444.25
2022-09-14T21:17:52.686Z,99443.47
2022-09-14T21:20:25.780Z,99443.23
2022-09-14T21:23:00.235Z,99453.33
2022-09-14T21:25:35.815Z,99450.61
2022-09-14T21:28:08.878Z,99444.67
2022-09-14T21:30:41.039Z,99442.30
2022-09-14T21:33:17.425Z,99439.34
2022-09-14T21:35:50.140Z,99431.06
2022-09-14T21:38:22.345Z,99431.39
2022-09-14T21:40:55.095Z,99425.16
2022-09-14T21:43:30.037Z,99423.44
2022-09-14T21:46:02.462Z,99425.39
2022-09-14T21:48:36.150Z,99434.77
2022-09-14T21:51:15.827Z,99435.71
2022-09-14T21:53:49.402Z,99431.35
2022-09-14T21:56:23.507Z,99428.84
2022-09-14T21:58:57.697Z,99431.66
2022-09-14T22:01:30.946Z,99430.57
2022-09-14T22:04:04.463Z,99429.55
2022-09-14T22:06:36.994Z,99429.33
2022-09-14T22:09:09.497Z,99427.53
2022-09-14T22:11:49.639Z,99426.68
2022-09-14T22:14:23.951Z,99429.42
2022-09-14T22:16:56.545Z,99425.52
2022-09-14T22:19:30.772Z,99432.70
2022-09-14T22:22:03.857Z,99431.05
2022-09-14T22:24:39.744Z,99428.64
2022-09-14T22:27:13.246Z,99423.00
2022-09-14T22:29:45.594Z,99421.45
2022-09-14T22:32:20.918Z,99419.73
2022-09-14T22:34:53.701Z,99419.41
2022-09-14T22:37:25.785Z,99413.55
2022-09-14T22:39:57.916Z,99412.95
2022-09-14T22:42:31.584Z,99415.13
2022-09-14T22:45:03.647Z,99411.08
2022-09-14T22:47:35.792Z,99414.13
2022-09-14T22:50:20.372Z,99417.73
2022-09-14T22:52:52.362Z,99406.65
2022-09-14T22:55:25.719Z,99401.56
2022-09-14T22:57:57.828Z,99396.17
2022-09-14T23:00:33.218Z,99393.59
2022-09-14T23:03:05.339Z,99395.08
2022-09-14T23:05:38.119Z,99394.23
2022-09-14T23:08:11.959Z,99392.60
2022-09-14T23:10:45.651Z,99395.10
2022-09-14T23:13:18.196Z,99392.06
2022-09-14T23:15:50.277Z,99396.29
2022-09-14T23:18:22.866Z,99401.84
2022-09-14T23:20:57.522Z,99399.58
2022-09-14T23:23:29.610Z,99392.61
2022-09-14T23:26:06.761Z,99387.38
2022-09-14T23:28:39.474Z,99391.05
2022-09-14T23:31:13.298Z,99390.82
2022-09-14T23:33:45.719Z,99388.86
2022-09-14T23:36:17.870Z,99384.09
2022-09-14T23:38:50.029Z,99373.55
2022-09-14T23:41:26.979Z,99366.85
2022-09-14T23:43:58.862Z,99365.98
2022-09-14T23:46:31.600Z,99364.19
2022-09-14T23:49:03.514Z,99371.30
2022-09-14T23:51:37.800Z,99369.66
2022-09-14T23:54:10.703Z,99361.48
2022-09-14T23:56:42.721Z,99357.33
2022-09-14T23:59:16.322Z,99364.52
